createdAt,value
2018-01-14T00:00:52.127Z,11.03
2018-01-14T00:03:20.298Z,10.17
2018-01-14T00:05:48.479Z,10.40
2018-01-14T00:08:16.655Z,11.57
2018-01-14T00:10:44.823Z,11.40
2018-01-14T00:13:12.992Z,11.63
2018-01-14T00:15:41.187Z,11.57
2018-01-14T00:18:09.345Z,11.20
2018-01-14T00:20:37.524Z,10.53
2018-01-14T00:23:05.696Z,11.63
2018-01-14T00:25:33.894Z,12.40
2018-01-14T00:28:02.066Z,10.97
2018-01-14T00:30:30.229Z,11.40
2018-01-14T00:32:58.406Z,10.97
2018-01-14T00:35:27.406Z,9.50
2018-01-14T00:37:55.566Z,11.47
2018-01-14T00:40:23.739Z,11.47
2018-01-14T00:42:51.967Z,11.33
2018-01-14T00:45:20.102Z,11.47
2018-01-14T00:47:48.263Z,13.53
2018-01-14T00:50:16.461Z,12.17
2018-01-14T00:52:44.623Z,11.73
2018-01-14T00:55:12.803Z,11.47
2018-01-14T00:57:40.969Z,11.80
2018-01-14T01:00:09.210Z,12.70
2018-01-14T01:02:37.374Z,12.33
2018-01-14T01:05:06.301Z,11.17
2018-01-14T01:07:34.472Z,10.47
2018-01-14T01:10:02.652Z,10.40
2018-01-14T01:12:30.811Z,11.83
2018-01-14T01:14:58.980Z,13.70
2018-01-14T01:17:27.153Z,11.07
2018-01-14T01:19:55.334Z,13.13
2018-01-14T01:22:23.518Z,12.80
2018-01-14T01:24:51.684Z,12.10
2018-01-14T01:27:19.847Z,11.33
2018-01-14T01:29:48.017Z,11.77
2018-01-14T01:32:16.196Z,15.10
2018-01-14T01:34:44.358Z,15.47
2018-01-14T01:37:13.297Z,14.70
2018-01-14T01:39:41.464Z,12.37
2018-01-14T01:42:09.634Z,12.67
2018-01-14T01:44:37.792Z,11.80
2018-01-14T01:47:05.957Z,15.33
2018-01-14T01:49:34.155Z,13.50
2018-01-14T01:52:02.330Z,14.80
2018-01-14T01:54:30.485Z,13.17
2018-01-14T01:56:58.655Z,13.10
2018-01-14T01:59:26.826Z,13.70
2018-01-14T02:01:55.773Z,13.30
2018-01-14T02:04:23.937Z,14.03
2018-01-14T02:06:52.133Z,13.53
2018-01-14T02:09:20.308Z,13.27
2018-01-14T02:11:48.476Z,14.17
2018-01-14T02:14:16.645Z,14.80
2018-01-14T02:16:44.808Z,14.27
2018-01-14T02:19:12.963Z,16.43
2018-01-14T02:21:41.157Z,16.00
2018-01-14T02:24:09.315Z,18.00
2018-01-14T02:26:37.471Z,15.60
2018-01-14T02:29:05.643Z,14.63
2018-01-14T02:31:33.823Z,14.83
2018-01-14T02:34:01.992Z,13.57
2018-01-14T02:36:30.192Z,15.27
2018-01-14T02:38:58.408Z,14.70
2018-01-14T02:41:26.577Z,15.57
2018-01-14T02:43:54.744Z,12.20
2018-01-14T02:46:22.970Z,15.37
2018-01-14T02:48:51.152Z,15.40
2018-01-14T02:51:19.351Z,15.53
2018-01-14T02:53:47.574Z,16.60
2018-01-14T02:56:16.520Z,14.73
2018-01-14T02:58:44.717Z,15.20
2018-01-14T03:01:12.977Z,14.67
2018-01-14T03:03:41.161Z,15.93
2018-01-14T03:06:09.378Z,14.20
2018-01-14T03:08:37.556Z,13.70
2018-01-14T03:11:05.728Z,14.23
2018-01-14T03:13:33.891Z,14.00
2018-01-14T03:16:02.845Z,14.30
2018-01-14T03:18:31.024Z,15.63
2018-01-14T03:20:59.192Z,14.40
2018-01-14T03:23:27.394Z,13.87
2018-01-14T03:25:55.583Z,14.40
2018-01-14T03:28:24.521Z,14.33
2018-01-14T03:30:52.692Z,13.30
2018-01-14T03:33:20.869Z,15.97
2018-01-14T03:35:49.092Z,16.03
2018-01-14T03:38:18.024Z,14.17
2018-01-14T03:40:46.242Z,13.60
2018-01-14T03:43:14.410Z,14.03
2018-01-14T03:45:42.574Z,13.80
2018-01-14T03:48:10.745Z,12.90
2018-01-14T03:50:38.945Z,10.27
2018-01-14T03:53:07.124Z,12.57
2018-01-14T03:55:35.294Z,13.00
2018-01-14T03:58:03.465Z,13.97
2018-01-14T04:00:31.642Z,13.60
2018-01-14T04:02:59.826Z,14.00
2018-01-14T04:05:28.814Z,14.50
2018-01-14T04:07:56.990Z,14.47
2018-01-14T04:10:25.161Z,13.27
2018-01-14T04:12:53.366Z,13.33
2018-01-14T04:15:21.533Z,13.53
2018-01-14T04:17:50.469Z,12.40
2018-01-14T04:20:18.637Z,12.83
2018-01-14T04:22:46.822Z,15.13
2018-01-14T04:25:14.985Z,15.70
2018-01-14T04:27:43.182Z,13.33
2018-01-14T04:30:11.357Z,14.40
2018-01-14T04:32:39.542Z,12.87
2018-01-14T04:35:07.741Z,14.97
2018-01-14T04:37:36.719Z,12.87
2018-01-14T04:40:04.904Z,13.23
2018-01-14T04:42:33.843Z,13.57
2018-01-14T04:45:02.129Z,15.00
2018-01-14T04:47:30.316Z,15.10
2018-01-14T04:49:58.562Z,13.50
2018-01-14T04:52:26.720Z,14.93
2018-01-14T04:54:55.128Z,17.83
2018-01-14T04:57:23.300Z,12.20
2018-01-14T04:59:51.474Z,14.37
2018-01-14T05:02:19.757Z,14.53
2018-01-14T05:04:47.953Z,16.03
2018-01-14T05:07:16.158Z,14.20
2018-01-14T05:09:45.102Z,10.30
2018-01-14T05:12:13.336Z,14.40
2018-01-14T05:14:42.262Z,12.50
2018-01-14T05:17:10.487Z,14.37
2018-01-14T05:19:38.685Z,12.50
2018-01-14T05:22:07.677Z,11.90
2018-01-14T05:24:36.622Z,13.87
2018-01-14T05:27:04.849Z,11.20
2018-01-14T05:29:33.033Z,14.37
2018-01-14T05:32:01.288Z,11.90
2018-01-14T05:34:30.269Z,11.23
2018-01-14T05:36:58.435Z,12.37
2018-01-14T05:39:26.593Z,12.90
2018-01-14T05:41:54.808Z,12.00
2018-01-14T05:44:23.838Z,14.17
2018-01-14T05:46:52.031Z,11.63
2018-01-14T05:49:20.239Z,11.63
2018-01-14T05:51:49.240Z,11.90
2018-01-14T05:54:18.214Z,10.70
2018-01-14T05:56:46.409Z,12.30
2018-01-14T05:59:15.356Z,10.73
2018-01-14T06:01:43.518Z,12.37
2018-01-14T06:04:11.691Z,10.33
2018-01-14T06:06:40.000Z,10.67
2018-01-14T06:09:08.202Z,13.70
2018-01-14T06:11:37.157Z,11.83
2018-01-14T06:14:05.339Z,11.77
2018-01-14T06:16:33.558Z,12.67
2018-01-14T06:19:01.787Z,13.40
2018-01-14T06:21:29.980Z,12.33
2018-01-14T06:23:58.141Z,12.97
2018-01-14T06:26:26.306Z,11.90
2018-01-14T06:28:54.469Z,12.10
2018-01-14T06:31:22.678Z,13.40
2018-01-14T06:33:50.919Z,12.77
2018-01-14T06:36:19.102Z,15.43
2018-01-14T06:38:47.311Z,13.47
2018-01-14T06:41:15.487Z,12.67
2018-01-14T06:43:44.461Z,13.27
2018-01-14T06:46:12.673Z,12.07
2018-01-14T06:48:41.611Z,12.27
2018-01-14T06:51:09.846Z,13.30
2018-01-14T06:53:38.026Z,13.63
2018-01-14T06:56:06.227Z,11.93
2018-01-14T06:58:34.457Z,13.73
2018-01-14T07:01:03.404Z,12.57
2018-01-14T07:03:31.645Z,12.10
2018-01-14T07:05:59.827Z,10.67
2018-01-14T07:08:28.068Z,11.50
2018-01-14T07:10:56.224Z,10.97
2018-01-14T07:13:24.382Z,11.47
2018-01-14T07:15:52.563Z,9.50
2018-01-14T07:18:20.723Z,11.60
2018-01-14T07:20:48.898Z,12.40
2018-01-14T07:23:17.103Z,11.43
2018-01-14T07:25:45.274Z,12.10
2018-01-14T07:28:13.457Z,11.00
2018-01-14T07:30:41.666Z,11.87
2018-01-14T07:33:09.868Z,12.87
2018-01-14T07:35:38.045Z,11.73
2018-01-14T07:38:06.202Z,13.80
2018-01-14T07:40:34.391Z,14.63
2018-01-14T07:43:02.597Z,12.10
2018-01-14T07:45:30.787Z,13.80
2018-01-14T07:47:58.970Z,15.10
2018-01-14T07:50:27.922Z,12.93
2018-01-14T07:52:56.121Z,12.70
2018-01-14T07:55:24.283Z,12.53
2018-01-14T07:57:52.445Z,16.17
2018-01-14T08:00:20.612Z,17.70
2018-01-14T08:02:48.782Z,13.00
2018-01-14T08:05:16.962Z,14.37
2018-01-14T08:07:45.177Z,14.27
2018-01-14T08:10:14.125Z,13.80
2018-01-14T08:12:42.378Z,16.83
2018-01-14T08:15:10.545Z,14.73
2018-01-14T08:17:38.734Z,14.97
2018-01-14T08:20:06.926Z,12.73
2018-01-14T08:22:35.259Z,13.20
2018-01-14T08:25:04.219Z,12.70
2018-01-14T08:27:32.413Z,11.93
2018-01-14T08:30:00.590Z,13.80
2018-01-14T08:32:29.581Z,14.93
2018-01-14T08:34:57.753Z,16.00
2018-01-14T08:37:25.922Z,13.20
2018-01-14T08:39:54.364Z,12.23
2018-01-14T08:42:22.528Z,15.93
2018-01-14T08:44:50.706Z,15.90
2018-01-14T08:47:19.270Z,18.97
2018-01-14T08:49:47.450Z,22.57
2018-01-14T08:52:15.649Z,20.00
2018-01-14T08:54:43.864Z,22.17
2018-01-14T08:57:12.038Z,21.00
2018-01-14T08:59:40.318Z,20.67
2018-01-14T09:02:08.487Z,21.60
2018-01-14T09:04:37.649Z,23.20
2018-01-14T09:07:05.818Z,22.03
2018-01-14T09:09:33.992Z,22.40
2018-01-14T09:12:02.169Z,25.93
2018-01-14T09:14:30.347Z,22.73
2018-01-14T09:16:58.526Z,22.40
2018-01-14T09:19:26.707Z,25.37
2018-01-14T09:21:54.975Z,24.10
2018-01-14T09:24:23.149Z,26.93
2018-01-14T09:26:52.093Z,26.23
2018-01-14T09:29:21.048Z,27.57
2018-01-14T09:31:49.229Z,30.27
2018-01-14T09:34:17.435Z,24.40
2018-01-14T09:36:46.395Z,30.60
2018-01-14T09:39:14.620Z,27.40
2018-01-14T09:41:42.790Z,25.20
2018-01-14T09:44:11.769Z,31.80
2018-01-14T09:46:40.774Z,28.33
2018-01-14T09:49:09.760Z,27.53
2018-01-14T09:51:38.733Z,29.33
2018-01-14T09:54:06.901Z,27.67
2018-01-14T09:56:35.084Z,30.00
2018-01-14T09:59:03.277Z,28.30
2018-01-14T10:01:32.226Z,29.87
2018-01-14T10:04:00.409Z,29.67
2018-01-14T10:06:28.574Z,24.40
2018-01-14T10:08:56.756Z,27.90
2018-01-14T10:11:24.949Z,24.40
2018-01-14T10:13:53.113Z,22.47
2018-01-14T10:16:21.375Z,20.37
2018-01-14T10:18:49.538Z,21.13
2018-01-14T10:21:17.744Z,24.97
2018-01-14T10:23:46.071Z,25.83
2018-01-14T10:26:14.242Z,23.43
2018-01-14T10:28:42.414Z,23.20
2018-01-14T10:31:10.612Z,23.37
2018-01-14T10:33:38.795Z,18.40
2018-01-14T10:36:06.983Z,22.87
2018-01-14T10:38:35.180Z,25.33
2018-01-14T10:41:04.242Z,21.80
2018-01-14T10:43:32.429Z,23.30
2018-01-14T10:46:00.591Z,21.20
2018-01-14T10:48:28.785Z,21.43
2018-01-14T10:50:56.982Z,21.30
2018-01-14T10:53:25.992Z,23.00
2018-01-14T10:55:55.261Z,25.13
2018-01-14T10:58:23.450Z,21.63
2018-01-14T11:00:58.401Z,21.50
2018-01-14T11:03:26.598Z,21.13
2018-01-14T11:05:54.803Z,19.40
2018-01-14T11:08:22.991Z,18.53
2018-01-14T11:10:51.213Z,20.60
2018-01-14T11:13:19.532Z,21.83
2018-01-14T11:15:47.802Z,20.03
2018-01-14T11:18:16.010Z,20.87
2018-01-14T11:20:44.191Z,23.30
2018-01-14T11:23:13.167Z,21.80
2018-01-14T11:25:41.361Z,16.40
2018-01-14T11:28:10.386Z,17.60
2018-01-14T11:30:38.567Z,20.47
2018-01-14T11:33:06.756Z,18.63
2018-01-14T11:35:34.941Z,16.83
2018-01-14T11:51:03.930Z,19.33
2018-01-14T11:53:32.129Z,18.80
2018-01-14T11:56:00.321Z,18.67
2018-01-14T11:58:29.289Z,20.93
2018-01-14T12:00:57.469Z,18.23
2018-01-14T12:03:25.658Z,19.23
2018-01-14T12:05:54.621Z,19.33
2018-01-14T12:08:22.937Z,15.50
2018-01-14T12:10:51.970Z,17.70
2018-01-14T12:13:20.145Z,17.40
2018-01-14T12:15:48.489Z,19.10
2018-01-14T12:18:17.446Z,18.73
2018-01-14T12:20:45.681Z,18.77
2018-01-14T12:23:13.851Z,15.50
2018-01-14T12:25:42.050Z,16.80
2018-01-14T12:28:10.309Z,16.00
2018-01-14T12:30:38.493Z,13.40
2018-01-14T12:33:08.466Z,14.10
2018-01-14T12:35:37.402Z,16.90
2018-01-14T12:38:05.605Z,16.83
2018-01-14T12:40:33.817Z,18.60
2018-01-14T12:43:02.027Z,15.50
2018-01-14T12:45:30.204Z,17.03
2018-01-14T12:47:58.468Z,18.80
2018-01-14T12:50:26.639Z,18.50
2018-01-14T12:52:54.805Z,15.17
2018-01-14T12:55:23.024Z,18.00
2018-01-14T12:57:51.215Z,22.60
2018-01-14T13:00:19.387Z,20.60
2018-01-14T13:05:06.454Z,17.37
2018-01-14T13:07:34.631Z,17.63
2018-01-14T13:10:03.587Z,18.77
2018-01-14T13:12:31.933Z,18.33
2018-01-14T13:15:00.113Z,14.17
2018-01-14T13:17:28.290Z,18.50
2018-01-14T13:19:56.467Z,19.10
2018-01-14T13:22:24.633Z,18.00
2018-01-14T13:24:52.813Z,18.43
2018-01-14T13:27:21.060Z,20.90
2018-01-14T13:29:49.299Z,28.53
2018-01-14T13:32:18.248Z,19.40
2018-01-14T13:34:46.494Z,20.40
2018-01-14T13:37:14.666Z,18.57
2018-01-14T13:39:43.599Z,20.43
2018-01-14T13:42:11.773Z,13.90
2018-01-14T13:44:39.953Z,15.80
2018-01-14T13:47:08.134Z,16.20
2018-01-14T13:49:36.312Z,15.10
2018-01-14T13:52:04.503Z,14.83
2018-01-14T13:54:32.717Z,17.07
2018-01-14T13:57:01.665Z,15.87
2018-01-14T13:59:29.851Z,13.83
2018-01-14T14:01:58.811Z,14.20
2018-01-14T14:04:26.982Z,17.80
2018-01-14T14:06:55.148Z,15.57
2018-01-14T14:09:23.321Z,15.60
2018-01-14T14:11:51.510Z,19.63
2018-01-14T14:14:19.707Z,16.90
2018-01-14T14:16:47.885Z,19.60
2018-01-14T14:19:16.065Z,18.47
2018-01-14T14:21:45.038Z,26.57
2018-01-14T14:24:13.215Z,17.27
2018-01-14T14:26:41.382Z,17.50
2018-01-14T14:29:09.573Z,14.23
2018-01-14T14:31:37.739Z,18.77
2018-01-14T14:34:05.899Z,16.13
2018-01-14T14:36:34.335Z,21.57
2018-01-14T14:39:02.520Z,17.77
2018-01-14T14:41:30.685Z,17.30
2018-01-14T14:43:58.938Z,15.77
2018-01-14T14:46:27.889Z,16.03
2018-01-14T14:48:56.114Z,16.13
2018-01-14T14:51:25.049Z,19.50
2018-01-14T14:53:53.233Z,19.67
2018-01-14T14:56:22.016Z,21.50
2018-01-14T14:58:50.185Z,20.33
2018-01-14T15:01:18.362Z,18.90
2018-01-14T15:03:46.527Z,18.30
2018-01-14T15:06:14.708Z,20.70
2018-01-14T15:08:42.890Z,20.37
2018-01-14T15:11:11.064Z,19.70
2018-01-14T15:13:39.281Z,20.00
2018-01-14T15:16:07.452Z,20.70
2018-01-14T15:18:35.630Z,21.30
2018-01-14T15:21:03.828Z,21.03
2018-01-14T15:23:31.999Z,21.20
2018-01-14T15:26:00.930Z,21.73
2018-01-14T15:28:29.108Z,20.43
2018-01-14T15:30:57.284Z,19.90
2018-01-14T15:33:25.467Z,21.73
2018-01-14T15:35:53.638Z,23.23
2018-01-14T15:38:22.582Z,18.27
2018-01-14T15:40:51.517Z,18.73
2018-01-14T15:43:19.735Z,20.00
2018-01-14T15:45:48.675Z,20.17
2018-01-14T15:48:16.880Z,21.87
2018-01-14T15:50:45.080Z,18.37
2018-01-14T15:53:14.040Z,23.00
2018-01-14T15:55:42.208Z,18.63
2018-01-14T15:58:10.383Z,21.27
2018-01-14T16:00:38.559Z,20.30
2018-01-14T16:03:06.773Z,20.73
2018-01-14T16:05:35.727Z,22.10
2018-01-14T16:08:03.902Z,20.37
2018-01-14T16:10:32.084Z,25.33
2018-01-14T16:13:00.264Z,19.97
2018-01-14T16:15:28.442Z,24.03
2018-01-14T16:17:56.657Z,32.22
2018-01-14T16:20:24.823Z,22.50
2018-01-14T16:22:53.767Z,25.07
2018-01-14T16:25:21.966Z,34.07
2018-01-14T16:27:50.151Z,21.40
2018-01-14T16:30:19.104Z,21.00
2018-01-14T16:32:47.297Z,22.47
2018-01-14T16:35:15.487Z,22.17
2018-01-14T16:37:43.678Z,22.30
2018-01-14T16:40:12.621Z,25.37
2018-01-14T16:42:40.825Z,20.90
2018-01-14T16:45:09.002Z,26.50
2018-01-14T16:47:37.179Z,22.17
2018-01-14T16:50:05.396Z,24.50
2018-01-14T16:52:33.587Z,29.50
2018-01-14T16:55:02.529Z,24.50
2018-01-14T16:57:30.706Z,23.17
2018-01-14T16:59:58.919Z,24.13
2018-01-14T17:02:27.857Z,23.03
2018-01-14T17:04:56.030Z,24.60
2018-01-14T17:07:24.213Z,25.47
2018-01-14T17:09:52.401Z,25.53
2018-01-14T17:12:20.594Z,22.93
2018-01-14T17:14:48.821Z,21.70
2018-01-14T17:17:17.746Z,21.80
2018-01-14T17:19:45.923Z,24.33
2018-01-14T17:38:29.144Z,21.90
2018-01-14T17:40:57.344Z,21.37
2018-01-14T17:43:25.535Z,24.33
2018-01-14T17:45:53.732Z,27.50
2018-01-14T17:48:21.933Z,26.00
2018-01-14T17:50:50.094Z,28.53
2018-01-14T17:53:18.270Z,24.37
2018-01-14T17:55:46.434Z,28.00
2018-01-14T17:58:14.605Z,25.50
2018-01-14T18:00:42.804Z,24.17
2018-01-14T18:03:11.081Z,24.87
2018-01-14T18:05:39.646Z,21.63
2018-01-14T18:08:07.862Z,23.20
2018-01-14T18:10:36.036Z,21.90
2018-01-14T18:13:04.219Z,25.67
2018-01-14T18:15:32.410Z,22.33
2018-01-14T18:18:00.598Z,26.23
2018-01-14T18:20:29.557Z,47.17
2018-01-14T18:22:57.777Z,25.40
2018-01-14T18:25:26.722Z,20.10
2018-01-14T18:27:54.916Z,25.30
2018-01-14T18:30:23.100Z,24.40
2018-01-14T18:32:51.287Z,24.50
2018-01-14T18:35:20.246Z,22.67
2018-01-14T18:37:48.447Z,25.07
2018-01-14T18:40:17.462Z,22.37
2018-01-14T18:42:45.671Z,24.37
2018-01-14T18:45:13.858Z,27.00
2018-01-14T18:47:42.169Z,22.33
2018-01-14T18:50:10.386Z,24.40
2018-01-14T18:52:38.565Z,21.00
2018-01-14T18:55:06.756Z,23.70
2018-01-14T18:57:34.936Z,23.70
2018-01-14T19:00:03.180Z,21.30
2018-01-14T19:02:31.385Z,24.40
2018-01-14T19:04:59.576Z,19.20
2018-01-14T19:07:27.767Z,21.97
2018-01-14T19:09:55.970Z,19.80
2018-01-14T19:12:24.166Z,22.53
2018-01-14T19:14:52.341Z,23.63
2018-01-14T19:17:20.552Z,18.60
2018-01-14T19:19:48.774Z,22.20
2018-01-14T19:22:16.970Z,19.17
2018-01-14T19:24:45.196Z,23.87
2018-01-14T19:27:14.167Z,22.40
2018-01-14T19:29:42.335Z,22.53
2018-01-14T19:32:11.309Z,23.03
2018-01-14T19:34:39.593Z,20.93
2018-01-14T19:37:07.769Z,20.33
2018-01-14T19:39:35.996Z,25.53
2018-01-14T19:42:04.963Z,21.87
2018-01-14T19:44:33.177Z,23.23
2018-01-14T19:47:01.368Z,22.53
2018-01-14T19:49:29.693Z,20.00
2018-01-14T19:51:57.973Z,27.43
2018-01-14T19:54:26.977Z,23.53
2018-01-14T19:56:55.985Z,26.73
2018-01-14T19:59:24.922Z,26.60
2018-01-14T20:01:53.255Z,31.73
2018-01-14T20:04:21.473Z,29.50
2018-01-14T20:06:49.678Z,22.87
2018-01-14T20:09:17.868Z,28.10
2018-01-14T20:11:46.958Z,25.93
2018-01-14T20:14:15.197Z,23.33
2018-01-14T20:16:43.369Z,31.57
2018-01-14T20:19:11.796Z,25.03
2018-01-14T20:21:40.181Z,26.35
2018-01-14T20:24:08.423Z,26.33
2018-01-14T20:26:36.717Z,24.27
2018-01-14T20:29:04.956Z,24.60
2018-01-14T20:31:33.142Z,23.10
2018-01-14T20:34:01.337Z,26.40
2018-01-14T20:36:29.705Z,24.00
2018-01-14T20:38:58.677Z,36.03
2018-01-14T20:41:26.862Z,37.63
2018-01-14T20:43:55.056Z,34.17
2018-01-14T20:46:23.302Z,24.43
2018-01-14T20:48:51.537Z,20.10
2018-01-14T20:51:19.881Z,19.50
2018-01-14T20:53:48.065Z,16.90
2018-01-14T20:56:16.278Z,18.17
2018-01-14T20:58:44.448Z,18.20
2018-01-14T21:01:13.398Z,20.33
2018-01-14T21:03:41.580Z,18.17
2018-01-14T21:06:09.750Z,16.50
2018-01-14T21:08:37.931Z,20.07
2018-01-14T21:11:06.133Z,18.47
2018-01-14T21:13:35.076Z,17.47
2018-01-14T21:16:03.248Z,17.13
2018-01-14T21:18:31.469Z,15.45
2018-01-14T21:21:00.408Z,17.37
2018-01-14T21:23:28.605Z,17.60
2018-01-14T21:25:56.784Z,18.50
2018-01-14T21:28:24.948Z,18.57
2018-01-14T21:30:53.178Z,20.20
2018-01-14T21:33:21.370Z,19.95
2018-01-14T21:35:49.543Z,16.50
2018-01-14T21:38:17.717Z,16.97
2018-01-14T21:40:45.883Z,18.20
2018-01-14T21:43:14.090Z,19.73
2018-01-14T21:45:42.300Z,17.57
2018-01-14T21:48:10.467Z,16.67
2018-01-14T21:50:38.644Z,16.90
2018-01-14T21:53:06.813Z,19.43
2018-01-14T21:55:34.981Z,18.07
2018-01-14T21:58:03.153Z,19.10
2018-01-14T22:00:31.314Z,16.63
2018-01-14T22:03:00.253Z,17.87
2018-01-14T22:05:29.247Z,19.30
2018-01-14T22:07:58.184Z,19.53
2018-01-14T22:10:26.367Z,20.35
2018-01-14T22:12:54.546Z,22.47
2018-01-14T22:15:22.751Z,17.43
2018-01-14T22:17:51.692Z,22.27
2018-01-14T22:20:19.860Z,25.10
2018-01-14T22:22:48.036Z,18.40
2018-01-14T22:25:16.278Z,22.47
2018-01-14T22:27:45.208Z,19.60
2018-01-14T22:30:13.389Z,18.37
2018-01-14T22:32:41.571Z,20.50
2018-01-14T22:35:09.738Z,21.00
2018-01-14T22:37:37.956Z,20.80
2018-01-14T22:40:06.146Z,19.03
2018-01-14T22:42:35.077Z,23.93
2018-01-14T22:45:03.261Z,19.10
2018-01-14T22:47:31.436Z,21.57
2018-01-14T22:49:59.608Z,19.10
2018-01-14T22:52:27.766Z,16.77
2018-01-14T22:54:55.967Z,19.05
2018-01-14T22:57:24.142Z,23.23
2018-01-14T22:59:52.325Z,17.23
2018-01-14T23:02:20.521Z,22.13
2018-01-14T23:04:49.462Z,19.20
2018-01-14T23:07:17.657Z,22.70
2018-01-14T23:09:45.821Z,20.00
2018-01-14T23:12:14.003Z,22.13
2018-01-14T23:14:47.603Z,26.20
2018-01-14T23:17:15.805Z,25.30
2018-01-14T23:19:48.017Z,20.47
2018-01-14T23:22:16.230Z,20.97
2018-01-14T23:24:44.435Z,19.60
2018-01-14T23:27:12.608Z,20.83
2018-01-14T23:29:40.778Z,24.53
2018-01-14T23:32:08.958Z,19.90
2018-01-14T23:34:37.132Z,22.60
2018-01-14T23:37:06.114Z,22.07
2018-01-14T23:39:34.294Z,20.70
2018-01-14T23:42:02.474Z,22.60
2018-01-14T23:44:30.676Z,16.10
2018-01-14T23:46:58.845Z,20.13
2018-01-14T23:49:27.030Z,16.70
2018-01-14T23:51:55.195Z,21.87
2018-01-14T23:54:23.394Z,20.77
2018-01-14T23:56:51.567Z,20.10
2018-01-14T23:59:19.746Z,20.10
